createdAt,value
2019-03-08T00:01:42.760Z,97047.80
2019-03-08T00:04:12.342Z,97048.86
2019-03-08T00:06:41.997Z,97039.95
2019-03-08T00:09:11.657Z,97048.38
2019-03-08T00:11:41.291Z,97059.16
2019-03-08T00:14:10.766Z,97059.30
2019-03-08T00:16:41.313Z,97074.29
2019-03-08T00:19:11.040Z,97072.62
2019-03-08T00:21:41.292Z,97081.52
2019-03-08T00:24:11.575Z,97078.80
2019-03-08T00:26:41.742Z,97078.98
2019-03-08T00:29:12.106Z,97083.03
2019-03-08T00:31:42.317Z,97079.66
2019-03-08T00:34:12.390Z,97076.59
2019-03-08T00:36:42.710Z,97076.59
2019-03-08T00:39:13.070Z,97076.94
2019-03-08T00:41:43.295Z,97085.87
2019-03-08T00:44:13.573Z,97078.61
2019-03-08T00:46:43.844Z,97069.53
2019-03-08T00:49:14.050Z,97072.14
2019-03-08T00:51:44.201Z,97087.00
2019-03-08T00:54:14.715Z,97091.97
2019-03-08T00:56:44.766Z,97080.52
2019-03-08T00:59:15.082Z,97084.86
2019-03-08T01:01:46.319Z,97095.84
2019-03-08T01:04:16.040Z,97110.41
2019-03-08T01:06:45.851Z,97105.89
2019-03-08T01:09:16.760Z,97111.80
2019-03-08T01:11:46.300Z,97110.41
2019-03-08T01:14:16.397Z,97113.45
2019-03-08T01:16:46.578Z,97106.17
2019-03-08T01:19:16.903Z,97114.69
2019-03-08T01:21:47.151Z,97102.53
2019-03-08T01:24:17.951Z,97106.86
2019-03-08T01:26:48.168Z,97105.50
2019-03-08T01:29:18.031Z,97107.80
2019-03-08T01:31:48.269Z,97102.76
2019-03-08T01:34:18.666Z,97097.47
2019-03-08T01:36:48.774Z,97096.20
2019-03-08T01:39:19.036Z,97095.34
2019-03-08T01:41:49.337Z,97095.84
2019-03-08T01:44:19.599Z,97102.52
2019-03-08T01:46:49.831Z,97104.18
2019-03-08T01:49:19.972Z,97097.72
2019-03-08T01:51:50.341Z,97101.66
2019-03-08T01:54:20.550Z,97099.59
2019-03-08T01:56:51.224Z,97099.22
2019-03-08T01:59:21.267Z,97095.53
2019-03-08T02:01:51.302Z,97098.30
2019-03-08T02:04:21.518Z,97085.44
2019-03-08T02:06:51.844Z,97085.44
2019-03-08T02:09:21.827Z,97091.64
2019-03-08T02:11:52.216Z,97090.83
2019-03-08T02:14:22.482Z,97099.66
2019-03-08T02:16:52.670Z,97107.32
2019-03-08T02:19:22.868Z,97104.92
2019-03-08T02:21:53.147Z,97101.38
2019-03-08T02:24:23.597Z,97096.49
2019-03-08T02:26:53.810Z,97098.30
2019-03-08T02:29:24.135Z,97091.63
2019-03-08T02:31:54.321Z,97098.26
2019-03-08T02:34:24.782Z,97095.76
2019-03-08T02:36:54.909Z,97093.66
2019-03-08T02:39:25.059Z,97091.30
2019-03-08T02:41:55.322Z,97100.44
2019-03-08T02:44:25.620Z,97096.85
2019-03-08T02:46:55.835Z,97107.85
2019-03-08T02:49:26.042Z,97101.39
2019-03-08T02:51:56.384Z,97111.66
2019-03-08T02:54:26.670Z,97121.44
2019-03-08T02:56:56.915Z,97129.07
2019-03-08T02:59:26.965Z,97130.55
2019-03-08T03:01:57.272Z,97131.79
2019-03-08T03:04:27.795Z,97144.42
2019-03-08T03:06:59.641Z,97145.76
2019-03-08T03:09:29.132Z,97134.61
2019-03-08T03:11:58.725Z,97147.94
2019-03-08T03:14:28.522Z,97145.34
2019-03-08T03:16:58.944Z,97145.06
2019-03-08T03:19:29.044Z,97138.42
2019-03-08T03:21:59.349Z,97135.13
2019-03-08T03:27:56.032Z,97139.92
2019-03-08T03:30:25.718Z,97140.98
2019-03-08T03:32:55.259Z,97144.77
2019-03-08T03:35:24.799Z,97150.57
2019-03-08T03:37:54.301Z,97154.23
2019-03-08T03:40:23.800Z,97164.22
2019-03-08T03:42:53.344Z,97161.67
2019-03-08T03:45:22.967Z,97165.77
2019-03-08T03:47:52.610Z,97168.02
2019-03-08T03:50:22.270Z,97173.08
2019-03-08T03:52:51.716Z,97179.08
2019-03-08T03:55:21.301Z,97172.03
2019-03-08T03:57:50.829Z,97170.12
2019-03-08T04:00:21.974Z,97176.87
2019-03-08T04:02:53.697Z,97170.25
2019-03-08T04:05:22.518Z,97176.80
2019-03-08T04:07:51.902Z,97171.45
2019-03-08T04:10:21.475Z,97166.16
2019-03-08T04:12:50.877Z,97167.44
2019-03-08T04:15:21.524Z,97176.58
2019-03-08T04:17:51.055Z,97170.60
2019-03-08T04:20:21.088Z,97178.86
2019-03-08T04:22:50.587Z,97191.38
2019-03-08T04:25:20.129Z,97195.10
2019-03-08T04:27:49.622Z,97191.64
2019-03-08T04:30:21.105Z,97194.45
2019-03-08T04:32:51.614Z,97198.95
2019-03-08T04:35:21.146Z,97205.02
2019-03-08T04:37:50.610Z,97214.02
2019-03-08T04:40:20.112Z,97217.25
2019-03-08T04:42:49.601Z,97224.23
2019-03-08T04:45:20.120Z,97218.95
2019-03-08T04:47:49.617Z,97217.70
2019-03-08T04:50:19.121Z,97225.97
2019-03-08T04:52:48.642Z,97222.34
2019-03-08T04:55:20.897Z,97228.97
2019-03-08T04:57:51.078Z,97220.52
2019-03-08T05:00:21.362Z,97228.80
2019-03-08T05:02:50.891Z,97227.27
2019-03-08T05:05:20.487Z,97228.30
2019-03-08T05:07:50.036Z,97230.19
2019-03-08T05:10:20.725Z,97228.66
2019-03-08T05:12:50.672Z,97233.89
2019-03-08T05:15:20.169Z,97231.95
2019-03-08T05:17:49.587Z,97240.94
2019-03-08T05:20:19.107Z,97244.23
2019-03-08T05:22:48.690Z,97248.77
2019-03-08T05:25:18.424Z,97248.05
2019-03-08T05:27:47.929Z,97253.66
2019-03-08T05:30:17.997Z,97254.45
2019-03-08T05:32:47.649Z,97257.09
2019-03-08T05:35:17.226Z,97259.25
2019-03-08T05:37:46.899Z,97260.03
2019-03-08T05:40:16.627Z,97262.52
2019-03-08T05:42:46.130Z,97261.63
2019-03-08T05:45:15.878Z,97275.50
2019-03-08T05:47:45.422Z,97276.52
2019-03-08T05:50:14.999Z,97273.41
2019-03-08T05:52:45.201Z,97272.30
2019-03-08T05:55:15.302Z,97266.88
2019-03-08T05:57:45.587Z,97277.94
2019-03-08T06:00:34.577Z,97272.72
2019-03-08T06:03:06.088Z,97265.33
2019-03-08T06:05:35.516Z,97271.57
2019-03-08T06:08:06.903Z,97274.76
2019-03-08T06:10:37.739Z,97268.95
2019-03-08T06:13:08.251Z,97277.99
2019-03-08T06:15:38.943Z,97270.53
2019-03-08T06:18:08.462Z,97278.38
2019-03-08T06:20:38.055Z,97287.44
2019-03-08T06:23:07.947Z,97290.55
2019-03-08T06:25:37.395Z,97295.22
2019-03-08T06:28:06.821Z,97299.44
2019-03-08T06:30:36.544Z,97302.02
2019-03-08T06:33:06.091Z,97311.72
2019-03-08T06:35:35.521Z,97320.34
2019-03-08T06:38:04.970Z,97313.48
2019-03-08T06:40:34.411Z,97317.53
2019-03-08T06:43:03.989Z,97315.02
2019-03-08T06:45:33.426Z,97326.94
2019-03-08T06:48:07.394Z,97330.70
2019-03-08T06:50:37.267Z,97332.09
2019-03-08T06:53:06.745Z,97333.14
2019-03-08T06:55:36.269Z,97336.48
2019-03-08T06:58:06.007Z,97342.36
2019-03-08T07:00:43.111Z,97348.91
2019-03-08T07:03:12.669Z,97354.29
2019-03-08T07:05:42.529Z,97360.42
2019-03-08T07:08:13.607Z,97360.58
2019-03-08T07:10:45.418Z,97361.12
2019-03-08T07:13:17.150Z,97359.44
2019-03-08T07:16:13.266Z,97363.87
2019-03-08T07:19:05.361Z,97363.23
2019-03-08T07:21:40.499Z,97359.97
2019-03-08T07:24:27.463Z,97359.54
2019-03-08T07:26:58.998Z,97377.46
2019-03-08T07:29:33.144Z,97381.05
2019-03-08T07:32:10.153Z,97380.04
2019-03-08T07:34:46.722Z,97382.41
2019-03-08T07:37:26.595Z,97385.11
2019-03-08T07:40:02.468Z,97388.82
2019-03-08T07:42:36.871Z,97378.20
2019-03-08T07:45:28.461Z,97387.22
2019-03-08T07:48:17.833Z,97387.88
2019-03-08T07:51:07.179Z,97395.25
2019-03-08T07:53:38.331Z,97397.83
2019-03-08T07:56:15.431Z,97406.66
2019-03-08T07:58:46.836Z,97411.02
2019-03-08T08:01:20.786Z,97411.99
2019-03-08T08:04:00.755Z,97405.20
2019-03-08T08:06:35.831Z,97404.20
2019-03-08T08:09:25.492Z,97398.73
2019-03-08T08:12:05.385Z,97399.98
2019-03-08T08:14:39.976Z,97408.20
2019-03-08T08:17:15.197Z,97405.98
2019-03-08T08:20:01.321Z,97412.61
2019-03-08T08:22:32.608Z,97408.27
2019-03-08T08:25:06.640Z,97409.19
2019-03-08T08:27:47.277Z,97403.26
2019-03-08T08:30:33.376Z,97405.45
2019-03-08T08:33:13.288Z,97408.38
2019-03-08T08:36:00.461Z,97418.73
2019-03-08T08:38:37.267Z,97420.42
2019-03-08T08:41:11.349Z,97413.02
2019-03-08T08:43:42.587Z,97419.52
2019-03-08T08:46:16.507Z,97422.59
2019-03-08T08:48:47.623Z,97428.35
2019-03-08T08:51:18.884Z,97422.11
2019-03-08T08:53:49.940Z,97432.16
2019-03-08T08:56:23.730Z,97430.41
2019-03-08T08:58:57.351Z,97428.31
2019-03-08T09:01:37.356Z,97432.03
2019-03-08T09:04:08.566Z,97433.55
2019-03-08T09:06:39.705Z,97439.81
2019-03-08T09:09:13.861Z,97439.31
2019-03-08T09:11:54.026Z,97451.92
2019-03-08T09:14:41.253Z,97457.17
2019-03-08T09:17:18.109Z,97453.31
2019-03-08T09:20:05.938Z,97449.34
2019-03-08T09:22:53.149Z,97453.07
2019-03-08T09:25:30.290Z,97450.33
2019-03-08T09:28:04.213Z,97457.02
2019-03-08T09:30:35.720Z,97461.54
2019-03-08T09:33:12.804Z,97466.92
2019-03-08T09:35:53.111Z,97473.47
2019-03-08T09:38:25.313Z,97469.81
2019-03-08T09:41:14.423Z,97468.36
2019-03-08T09:43:54.697Z,97477.34
2019-03-08T09:46:25.981Z,97482.81
2019-03-08T09:49:06.233Z,97476.43
2019-03-08T09:51:46.659Z,97481.28
2019-03-08T09:54:20.845Z,97478.67
2019-03-08T09:57:01.178Z,97487.64
2019-03-08T09:59:32.365Z,97490.41
2019-03-08T10:02:09.010Z,97490.96
2019-03-08T10:04:49.119Z,97495.03
2019-03-08T10:07:21.447Z,97499.88
2019-03-08T10:09:57.215Z,97509.58
2019-03-08T10:12:43.484Z,97511.23
2019-03-08T10:15:32.103Z,97510.84
2019-03-08T10:18:19.587Z,97507.12
2019-03-08T10:21:07.912Z,97508.14
2019-03-08T10:23:44.536Z,97508.03
2019-03-08T10:26:31.712Z,97501.05
2019-03-08T10:29:11.677Z,97511.28
2019-03-08T10:31:48.975Z,97511.77
2019-03-08T10:34:28.848Z,97513.27
2019-03-08T10:36:59.999Z,97505.98
2019-03-08T10:39:36.958Z,97511.05
2019-03-08T10:42:08.354Z,97507.56
2019-03-08T10:44:41.889Z,97512.58
2019-03-08T10:47:22.021Z,97512.05
2019-03-08T10:50:07.935Z,97508.82
2019-03-08T10:52:39.079Z,97508.25
2019-03-08T10:55:28.364Z,97507.45
2019-03-08T10:58:05.441Z,97504.05
2019-03-08T11:00:42.427Z,97515.08
2019-03-08T11:03:16.832Z,97507.60
2019-03-08T11:06:04.367Z,97519.78
2019-03-08T11:08:35.717Z,97508.81
2019-03-08T11:11:15.816Z,97508.01
2019-03-08T11:14:03.507Z,97505.73
2019-03-08T11:16:43.504Z,97509.37
2019-03-08T11:19:27.759Z,97510.75
2019-03-08T11:22:11.577Z,97507.55
2019-03-08T11:24:51.544Z,97502.04
2019-03-08T11:27:22.641Z,97505.14
2019-03-08T11:29:56.417Z,97500.20
2019-03-08T11:32:42.893Z,97491.98
2019-03-08T11:35:17.099Z,97501.70
2019-03-08T11:37:51.723Z,97495.42
2019-03-08T11:40:29.091Z,97499.78
2019-03-08T11:43:12.444Z,97503.66
2019-03-08T11:45:43.628Z,97498.34
2019-03-08T11:48:31.130Z,97504.62
2019-03-08T11:51:18.338Z,97497.19
2019-03-08T11:53:56.262Z,97496.88
2019-03-08T11:56:27.857Z,97490.15
2019-03-08T11:59:15.066Z,97492.80
2019-03-08T12:01:49.416Z,97492.80
2019-03-08T12:04:22.325Z,97481.16
2019-03-08T12:06:59.451Z,97481.16
2019-03-08T12:09:40.665Z,97483.91
2019-03-08T12:12:14.779Z,97476.29
2019-03-08T12:15:02.061Z,97475.89
2019-03-08T12:17:33.314Z,97472.58
2019-03-08T12:20:19.845Z,97473.34
2019-03-08T12:22:53.483Z,97478.05
2019-03-08T12:25:41.054Z,97477.55
2019-03-08T12:28:13.340Z,97473.21
2019-03-08T12:31:00.116Z,97481.56
2019-03-08T12:33:34.192Z,97474.95
2019-03-08T12:36:25.967Z,97487.58
2019-03-08T12:39:13.372Z,97483.56
2019-03-08T12:41:44.445Z,97478.93
2019-03-08T12:44:30.872Z,97482.69
2019-03-08T12:47:16.989Z,97487.65
2019-03-08T12:49:50.827Z,97482.08
2019-03-08T12:52:40.137Z,97476.40
2019-03-08T12:55:27.985Z,97474.66
2019-03-08T12:58:04.910Z,97480.22
2019-03-08T13:00:44.963Z,97473.94
2019-03-08T13:03:32.149Z,97465.06
2019-03-08T13:06:09.476Z,97466.61
2019-03-08T13:08:46.404Z,97466.24
2019-03-08T13:11:16.145Z,97466.94
2019-03-08T13:13:45.723Z,97466.23
2019-03-08T13:16:15.233Z,97468.11
2019-03-08T13:18:44.704Z,97460.80
2019-03-08T13:21:14.258Z,97460.23
2019-03-08T13:23:43.717Z,97458.85
2019-03-08T13:26:13.141Z,97459.08
2019-03-08T13:28:42.659Z,97469.15
2019-03-08T13:31:12.103Z,97463.48
2019-03-08T13:33:41.710Z,97463.92
2019-03-08T13:36:11.106Z,97463.30
2019-03-08T13:38:40.700Z,97463.13
2019-03-08T13:41:10.126Z,97462.42
2019-03-08T13:43:40.914Z,97468.92
2019-03-08T13:46:10.346Z,97469.94
2019-03-08T13:48:39.919Z,97461.06
2019-03-08T13:51:09.508Z,97467.62
2019-03-08T13:53:38.945Z,97454.31
2019-03-08T13:56:08.414Z,97465.05
2019-03-08T13:58:38.049Z,97469.03
2019-03-08T14:01:07.551Z,97473.87
2019-03-08T14:03:36.981Z,97474.27
2019-03-08T14:06:06.496Z,97460.86
2019-03-08T14:08:35.997Z,97470.19
2019-03-08T14:11:05.783Z,97469.44
2019-03-08T14:13:35.369Z,97472.23
2019-03-08T14:16:04.984Z,97482.63
2019-03-08T14:18:34.496Z,97482.59
2019-03-08T14:21:05.055Z,97484.72
2019-03-08T14:23:34.560Z,97493.28
2019-03-08T14:26:04.272Z,97501.45
2019-03-08T14:28:33.842Z,97496.92
2019-03-08T14:31:08.927Z,97497.12
2019-03-08T14:33:38.995Z,97501.04
2019-03-08T14:36:08.786Z,97505.30
2019-03-08T14:38:39.304Z,97506.59
2019-03-08T14:41:13.585Z,97495.20
2019-03-08T14:43:49.010Z,97492.16
2019-03-08T14:46:23.739Z,97485.36
2019-03-08T14:48:53.261Z,97489.51
2019-03-08T14:51:22.739Z,97486.50
2019-03-08T14:53:52.408Z,97492.09
2019-03-08T14:56:22.079Z,97489.70
2019-03-08T14:58:51.666Z,97494.06
2019-03-08T15:01:21.274Z,97499.46
2019-03-08T15:03:52.026Z,97497.73
2019-03-08T15:06:21.735Z,97504.91
2019-03-08T15:08:55.081Z,97504.72
2019-03-08T15:11:23.507Z,97499.06
2019-03-08T15:13:57.944Z,97496.70
2019-03-08T15:16:26.784Z,97501.78
2019-03-08T15:18:56.384Z,97510.19
2019-03-08T15:21:26.016Z,97513.98
2019-03-08T15:23:56.059Z,97514.55
2019-03-08T15:26:25.639Z,97513.94
2019-03-08T15:28:55.252Z,97512.23
2019-03-08T15:31:39.606Z,97513.34
2019-03-08T15:34:09.502Z,97524.48
2019-03-08T15:40:18.234Z,97523.02
2019-03-08T15:46:09.676Z,97538.72
2019-03-08T15:52:05.526Z,97537.42
2019-03-08T15:58:00.467Z,97523.28
2019-03-08T16:00:46.404Z,97523.75
2019-03-08T16:06:28.214Z,97524.06
2019-03-08T16:09:01.967Z,97519.34
2019-03-08T16:17:31.181Z,97539.54
2019-03-08T16:23:17.440Z,97553.93
2019-03-08T16:25:54.462Z,97558.35
2019-03-08T16:28:31.171Z,97553.95
2019-03-08T16:31:15.300Z,97560.05
2019-03-08T16:34:03.447Z,97557.15
2019-03-08T16:36:47.190Z,97546.19
2019-03-08T16:40:00.830Z,97541.45
2019-03-08T16:45:50.682Z,97562.06
2019-03-08T16:48:30.736Z,97564.92
2019-03-08T16:51:36.038Z,97563.42
2019-03-08T16:54:38.781Z,97568.64
2019-03-08T16:57:32.422Z,97567.44
2019-03-08T17:03:21.971Z,97572.98
2019-03-08T17:09:10.892Z,97571.27
2019-03-08T17:12:19.178Z,97568.88
2019-03-08T17:15:21.696Z,97571.42
2019-03-08T17:17:59.017Z,97578.14
2019-03-08T17:20:53.180Z,97579.45
2019-03-08T17:23:45.128Z,97579.45
2019-03-08T17:26:40.240Z,97591.55
2019-03-08T17:29:21.600Z,97592.71
2019-03-08T17:32:10.291Z,97596.67
2019-03-08T17:34:58.750Z,97600.78
2019-03-08T17:37:32.104Z,97610.64
2019-03-08T17:40:18.897Z,97605.86
2019-03-08T17:43:11.689Z,97614.45
2019-03-08T17:45:59.287Z,97620.66
2019-03-08T17:48:31.067Z,97622.48
2019-03-08T17:51:05.264Z,97630.13
2019-03-08T17:53:46.122Z,97629.39
2019-03-08T17:56:34.887Z,97632.17
2019-03-08T17:59:06.751Z,97632.44
2019-03-08T18:01:49.859Z,97633.52
2019-03-08T18:04:34.087Z,97642.45
2019-03-08T18:07:13.560Z,97649.30
2019-03-08T18:09:58.677Z,97655.83
2019-03-08T18:12:46.914Z,97658.98
2019-03-08T18:15:37.993Z,97657.03
2019-03-08T18:18:25.741Z,97666.72
2019-03-08T18:21:07.864Z,97666.02
2019-03-08T18:23:56.145Z,97663.70
2019-03-08T18:26:40.220Z,97667.56
2019-03-08T18:29:25.036Z,97670.17
2019-03-08T18:32:07.974Z,97670.17
2019-03-08T18:38:31.167Z,97695.22
2019-03-08T18:41:17.879Z,97697.84
2019-03-08T18:44:05.395Z,97696.88
2019-03-08T18:46:50.883Z,97709.10
2019-03-08T18:49:24.588Z,97724.97
2019-03-08T18:52:17.057Z,97719.23
2019-03-08T18:54:49.842Z,97729.36
2019-03-08T18:57:37.055Z,97728.38
2019-03-08T19:00:18.575Z,97728.55
2019-03-08T19:02:55.451Z,97726.57
2019-03-08T19:05:26.564Z,97728.52
2019-03-08T19:08:10.827Z,97726.22
2019-03-08T19:11:17.933Z,97735.17
2019-03-08T19:14:05.334Z,97736.13
2019-03-08T19:16:41.392Z,97739.53
2019-03-08T19:19:15.717Z,97749.98
2019-03-08T19:21:50.900Z,97747.78
2019-03-08T19:24:40.465Z,97753.17
2019-03-08T19:30:39.185Z,97773.95
2019-03-08T19:33:22.540Z,97788.05
2019-03-08T19:35:54.021Z,97799.92
2019-03-08T19:38:26.751Z,97790.29
2019-03-08T19:41:14.128Z,97785.75
2019-03-08T19:43:57.326Z,97783.59
2019-03-08T19:46:43.438Z,97789.34
2019-03-08T19:49:47.188Z,97798.73
2019-03-08T19:52:22.842Z,97805.77
2019-03-08T19:58:36.798Z,97828.36
2019-03-08T20:01:37.313Z,97839.13
2019-03-08T20:08:00.256Z,97838.80
2019-03-08T20:10:37.564Z,97835.95
2019-03-08T20:13:27.928Z,97840.77
2019-03-08T20:16:17.536Z,97845.03
2019-03-08T20:22:53.659Z,97858.22
2019-03-08T20:25:28.140Z,97864.29
2019-03-08T20:28:05.054Z,97872.09
2019-03-08T20:30:45.397Z,97878.72
2019-03-08T20:33:22.453Z,97885.13
2019-03-08T20:36:02.271Z,97887.45
2019-03-08T20:38:46.971Z,97900.25
2019-03-08T20:41:21.178Z,97908.45
2019-03-08T20:43:52.409Z,97912.64
2019-03-08T20:46:23.616Z,97906.91
2019-03-08T20:48:53.199Z,97905.90
2019-03-08T20:51:22.882Z,97906.63
2019-03-08T20:53:52.600Z,97916.36
2019-03-08T20:56:22.289Z,97912.27
2019-03-08T20:58:52.033Z,97921.73
2019-03-08T21:01:21.641Z,97922.03
2019-03-08T21:03:51.200Z,97942.41
2019-03-08T21:06:20.780Z,97945.84
2019-03-08T21:08:50.311Z,97946.48
2019-03-08T21:11:19.789Z,97960.75
2019-03-08T21:13:49.319Z,97967.97
2019-03-08T21:16:18.960Z,97972.63
2019-03-08T21:18:48.571Z,97977.09
2019-03-08T21:21:18.149Z,97983.69
2019-03-08T21:23:47.774Z,97989.79
2019-03-08T21:26:17.533Z,97985.14
2019-03-08T21:28:47.180Z,97987.34
2019-03-08T21:31:16.744Z,97986.97
2019-03-08T21:33:46.373Z,97987.88
2019-03-08T21:36:16.502Z,97995.72
2019-03-08T21:38:46.228Z,97991.97
2019-03-08T21:41:15.848Z,97994.59
2019-03-08T21:43:45.472Z,97985.31
2019-03-08T21:46:15.168Z,97983.03
2019-03-08T21:48:44.925Z,97981.73
2019-03-08T21:51:14.701Z,97974.94
2019-03-08T21:53:44.511Z,97975.63
2019-03-08T21:56:14.174Z,97983.88
2019-03-08T21:58:43.696Z,97986.27
2019-03-08T22:01:13.228Z,97985.44
2019-03-08T22:03:44.448Z,97991.54
2019-03-08T22:06:14.049Z,97997.92
2019-03-08T22:08:51.120Z,97995.51
2019-03-08T22:11:22.268Z,97986.55
2019-03-08T22:13:56.212Z,97978.90
2019-03-08T22:16:25.759Z,97978.59
2019-03-08T22:18:55.256Z,97980.39
2019-03-08T22:21:30.519Z,97974.14
2019-03-08T22:24:00.967Z,97978.26
2019-03-08T22:26:44.773Z,97973.05
2019-03-08T22:29:30.150Z,97966.83
2019-03-08T22:32:01.764Z,97961.97
2019-03-08T22:34:31.875Z,97955.12
2019-03-08T22:37:02.371Z,97963.17
2019-03-08T22:39:31.969Z,97963.47
2019-03-08T22:42:01.612Z,97957.13
2019-03-08T22:44:31.141Z,97961.58
2019-03-08T22:47:00.748Z,97969.62
2019-03-08T22:49:30.178Z,97974.32
2019-03-08T22:52:03.307Z,97970.81
2019-03-08T22:54:32.934Z,97964.94
2019-03-08T22:57:02.437Z,97973.64
2019-03-08T22:59:32.018Z,97976.63
2019-03-08T23:02:07.027Z,97958.80
2019-03-08T23:04:36.733Z,97961.08
2019-03-08T23:07:07.092Z,97972.55
2019-03-08T23:09:37.867Z,97968.03
2019-03-08T23:12:07.500Z,97975.96
2019-03-08T23:14:38.110Z,97982.66
2019-03-08T23:17:07.647Z,97983.73
2019-03-08T23:19:37.707Z,97985.56
2019-03-08T23:22:07.441Z,97985.30
2019-03-08T23:24:37.071Z,97997.22
2019-03-08T23:27:17.507Z,98008.94
2019-03-08T23:29:51.779Z,98009.02
2019-03-08T23:32:28.739Z,98010.57
2019-03-08T23:34:58.758Z,98006.66
2019-03-08T23:37:28.276Z,98004.48
2019-03-08T23:39:58.854Z,98008.50
2019-03-08T23:42:28.721Z,98007.52
2019-03-08T23:44:58.290Z,97997.05
2019-03-08T23:47:28.530Z,97997.14
2019-03-08T23:49:58.740Z,97999.62
2019-03-08T23:52:28.191Z,97999.65
2019-03-08T23:54:58.167Z,97995.51
2019-03-08T23:57:27.715Z,97993.44
2019-03-08T23:59:57.303Z,98001.81
